createdAt,value
2023-05-08T00:00:41.540Z,55.48
2023-05-08T00:01:41.539Z,55.21
2023-05-08T00:02:41.638Z,55.38
2023-05-08T00:03:41.686Z,55.24
2023-05-08T00:04:41.640Z,55.38
2023-05-08T00:05:41.594Z,55.26
2023-05-08T00:06:41.609Z,55.27
2023-05-08T00:07:41.635Z,55.01
2023-05-08T00:08:41.628Z,55.12
2023-05-08T00:09:41.648Z,55.08
2023-05-08T00:10:41.665Z,55.09
2023-05-08T00:11:41.676Z,55.20
2023-05-08T00:12:41.710Z,55.74
2023-05-08T00:13:41.665Z,54.87
2023-05-08T00:14:41.701Z,54.79
2023-05-08T00:15:41.703Z,54.82
2023-05-08T00:16:41.767Z,54.51
2023-05-08T00:17:41.765Z,54.76
2023-05-08T00:18:41.723Z,55.01
2023-05-08T00:19:41.718Z,55.01
2023-05-08T00:20:41.749Z,54.71
2023-05-08T00:21:41.735Z,54.82
2023-05-08T00:22:41.829Z,54.75
2023-05-08T00:23:41.751Z,54.57
2023-05-08T00:24:41.754Z,54.78
2023-05-08T00:25:41.740Z,54.95
2023-05-08T00:26:41.757Z,54.68
2023-05-08T00:27:41.732Z,54.39
2023-05-08T00:28:41.753Z,54.67
2023-05-08T00:29:41.731Z,54.53
2023-05-08T00:30:41.734Z,54.49
2023-05-08T00:31:41.777Z,54.71
2023-05-08T00:32:41.753Z,54.72
2023-05-08T00:33:41.838Z,54.35
2023-05-08T00:34:41.782Z,54.45
2023-05-08T00:35:41.768Z,54.89
2023-05-08T00:36:41.777Z,54.76
2023-05-08T00:37:41.789Z,54.72
2023-05-08T00:38:41.814Z,54.76
2023-05-08T00:39:41.802Z,54.56
2023-05-08T00:40:41.797Z,54.59
2023-05-08T00:41:41.802Z,54.54
2023-05-08T00:42:41.793Z,54.70
2023-05-08T00:43:41.833Z,54.74
2023-05-08T00:44:41.829Z,54.86
2023-05-08T00:45:41.845Z,54.84
2023-05-08T00:46:41.996Z,54.79
2023-05-08T00:47:41.865Z,55.08
2023-05-08T00:48:41.851Z,55.15
2023-05-08T00:49:41.844Z,55.18
2023-05-08T00:50:41.868Z,55.30
2023-05-08T00:51:41.864Z,55.42
2023-05-08T00:52:41.854Z,55.22
2023-05-08T00:53:41.890Z,55.31
2023-05-08T00:54:41.892Z,55.34
2023-05-08T00:55:41.888Z,55.32
2023-05-08T00:56:41.879Z,55.17
2023-05-08T00:57:41.890Z,55.13
2023-05-08T00:58:41.878Z,55.07
2023-05-08T00:59:41.900Z,55.06
2023-05-08T01:00:41.896Z,55.11
2023-05-08T01:01:41.939Z,54.95
2023-05-08T01:02:41.978Z,55.46
2023-05-08T01:03:42.002Z,55.31
2023-05-08T01:04:41.954Z,55.20
2023-05-08T01:05:41.975Z,55.32
2023-05-08T01:06:41.972Z,55.22
2023-05-08T01:07:42.004Z,55.31
2023-05-08T01:08:42.002Z,55.46
2023-05-08T01:09:42.015Z,55.46
2023-05-08T01:10:42.028Z,55.44
2023-05-08T01:11:42.078Z,55.58
2023-05-08T01:12:42.110Z,55.46
2023-05-08T01:13:42.127Z,55.28
2023-05-08T01:14:42.174Z,55.30
2023-05-08T01:15:42.209Z,55.46
2023-05-08T01:16:42.220Z,55.64
2023-05-08T01:17:42.251Z,55.74
2023-05-08T01:18:42.261Z,55.93
2023-05-08T01:19:42.283Z,55.92
2023-05-08T01:20:42.315Z,55.87
2023-05-08T01:21:42.346Z,55.79
2023-05-08T01:22:42.352Z,55.76
2023-05-08T01:23:42.395Z,55.67
2023-05-08T01:24:42.426Z,55.69
2023-05-08T01:25:42.429Z,55.59
2023-05-08T01:26:42.429Z,55.64
2023-05-08T01:27:42.453Z,55.67
2023-05-08T01:28:42.475Z,55.44
2023-05-08T01:29:42.511Z,55.43
2023-05-08T01:30:42.545Z,55.68
2023-05-08T01:31:42.543Z,55.53
2023-05-08T01:32:42.574Z,55.49
2023-05-08T01:33:42.637Z,55.68
2023-05-08T01:34:42.581Z,55.45
2023-05-08T01:35:42.582Z,55.44
2023-05-08T01:36:42.596Z,55.42
2023-05-08T01:37:42.603Z,55.59
2023-05-08T01:38:42.617Z,55.60
2023-05-08T01:39:42.628Z,55.52
2023-05-08T01:40:42.688Z,55.66
2023-05-08T01:41:42.681Z,55.82
2023-05-08T01:42:42.689Z,55.57
2023-05-08T01:43:42.707Z,55.42
2023-05-08T01:44:42.729Z,55.78
2023-05-08T01:45:42.715Z,55.81
2023-05-08T01:46:42.779Z,55.72
2023-05-08T01:47:42.742Z,55.66
2023-05-08T01:48:42.719Z,55.85
2023-05-08T01:49:42.721Z,55.59
2023-05-08T01:50:42.731Z,55.53
2023-05-08T01:51:42.753Z,55.78
2023-05-08T01:52:42.761Z,55.74
2023-05-08T01:53:42.751Z,55.77
2023-05-08T01:54:42.760Z,55.62
2023-05-08T01:55:42.809Z,55.88
2023-05-08T01:56:42.798Z,56.15
2023-05-08T01:57:42.821Z,55.90
2023-05-08T01:58:42.818Z,55.64
2023-05-08T01:59:42.864Z,55.38
2023-05-08T02:00:42.916Z,55.57
2023-05-08T02:01:42.879Z,56.03
2023-05-08T02:02:42.980Z,55.95
2023-05-08T02:03:42.947Z,55.86
2023-05-08T02:04:42.919Z,55.73
2023-05-08T02:05:42.928Z,55.98
2023-05-08T02:06:42.930Z,56.37
2023-05-08T02:07:42.940Z,56.63
2023-05-08T02:08:42.950Z,56.79
2023-05-08T02:09:42.963Z,56.93
2023-05-08T02:10:42.983Z,57.10
2023-05-08T02:11:42.981Z,57.42
2023-05-08T02:12:43.015Z,57.21
2023-05-08T02:13:43.001Z,57.15
2023-05-08T02:14:43.007Z,57.45
2023-05-08T02:15:43.020Z,57.41
2023-05-08T02:16:43.073Z,57.56
2023-05-08T02:17:43.159Z,57.59
2023-05-08T02:18:43.081Z,57.61
2023-05-08T02:19:43.086Z,57.88
2023-05-08T02:20:43.106Z,57.67
2023-05-08T02:21:43.130Z,57.97
2023-05-08T02:22:43.189Z,57.95
2023-05-08T02:23:43.168Z,58.04
2023-05-08T02:24:43.196Z,58.00
2023-05-08T02:25:43.223Z,57.89
2023-05-08T02:26:43.356Z,57.74
2023-05-08T02:27:43.263Z,57.77
2023-05-08T02:28:43.283Z,57.79
2023-05-08T02:29:43.314Z,57.87
2023-05-08T02:30:43.354Z,57.91
2023-05-08T02:31:43.423Z,57.78
2023-05-08T02:32:43.448Z,57.80
2023-05-08T02:33:43.418Z,57.82
2023-05-08T02:34:54.985Z,57.95
2023-05-08T02:35:44.464Z,58.20
2023-05-08T02:36:43.437Z,58.24
2023-05-08T02:37:43.433Z,58.44
2023-05-08T02:38:43.413Z,58.30
2023-05-08T02:39:43.431Z,58.46
2023-05-08T02:40:43.426Z,58.42
2023-05-08T02:41:43.392Z,58.21
2023-05-08T02:42:43.384Z,58.25
2023-05-08T02:43:43.396Z,58.48
2023-05-08T02:44:43.378Z,58.29
2023-05-08T02:45:43.402Z,58.18
2023-05-08T02:46:43.380Z,57.56
2023-05-08T02:47:43.432Z,56.87
2023-05-08T02:48:43.335Z,56.86
2023-05-08T02:49:43.346Z,56.98
2023-05-08T02:50:43.338Z,57.12
2023-05-08T02:51:43.317Z,56.59
2023-05-08T02:52:43.319Z,56.41
2023-05-08T02:53:43.317Z,56.33
2023-05-08T02:54:43.321Z,56.32
2023-05-08T02:55:43.293Z,56.22
2023-05-08T02:56:43.339Z,56.28
2023-05-08T02:57:43.333Z,56.55
2023-05-08T02:58:43.326Z,56.03
2023-05-08T02:59:43.332Z,55.88
2023-05-08T03:00:43.354Z,55.32
2023-05-08T03:01:43.366Z,55.25
2023-05-08T03:02:43.436Z,55.08
2023-05-08T03:03:43.601Z,55.34
2023-05-08T03:04:43.414Z,55.29
2023-05-08T03:05:43.403Z,55.20
2023-05-08T03:06:43.413Z,54.83
2023-05-08T03:07:43.428Z,55.00
2023-05-08T03:08:43.454Z,54.88
2023-05-08T03:09:43.470Z,54.85
2023-05-08T03:10:43.472Z,54.70
2023-05-08T03:11:43.504Z,54.95
2023-05-08T03:12:43.544Z,54.83
2023-05-08T03:13:43.548Z,54.98
2023-05-08T03:14:43.560Z,55.15
2023-05-08T03:15:43.642Z,55.25
2023-05-08T03:16:43.605Z,55.41
2023-05-08T03:17:43.696Z,55.23
2023-05-08T03:18:43.635Z,54.85
2023-05-08T03:19:43.657Z,54.79
2023-05-08T03:20:43.688Z,54.72
2023-05-08T03:21:43.705Z,54.61
2023-05-08T03:22:43.738Z,54.81
2023-05-08T03:23:43.779Z,55.08
2023-05-08T03:24:43.808Z,54.94
2023-05-08T03:25:43.815Z,54.94
2023-05-08T03:26:43.822Z,56.10
2023-05-08T03:27:43.841Z,55.56
2023-05-08T03:28:43.820Z,55.32
2023-05-08T03:29:43.830Z,54.97
2023-05-08T03:30:43.840Z,55.04
2023-05-08T03:31:43.970Z,55.11
2023-05-08T03:32:43.839Z,54.95
2023-05-08T03:33:43.831Z,54.92
2023-05-08T03:34:43.853Z,54.67
2023-05-08T03:35:43.856Z,55.01
2023-05-08T03:36:43.918Z,54.84
2023-05-08T03:37:43.901Z,54.87
2023-05-08T03:38:43.883Z,54.85
2023-05-08T03:39:43.904Z,54.67
2023-05-08T03:40:43.922Z,54.73
2023-05-08T03:41:43.889Z,54.72
2023-05-08T03:42:43.895Z,54.71
2023-05-08T03:43:43.897Z,55.28
2023-05-08T03:44:43.918Z,56.04
2023-05-08T03:45:43.908Z,55.51
2023-05-08T03:46:43.975Z,55.18
2023-05-08T03:47:44.521Z,57.04
2023-05-08T03:48:43.987Z,56.32
2023-05-08T03:49:44.034Z,56.72
2023-05-08T03:50:44.039Z,56.79
2023-05-08T03:51:44.071Z,57.12
2023-05-08T03:52:44.120Z,56.65
2023-05-08T03:53:44.166Z,56.48
2023-05-08T03:54:44.216Z,56.47
2023-05-08T03:55:44.253Z,56.56
2023-05-08T03:56:44.303Z,56.60
2023-05-08T03:57:44.323Z,56.38
2023-05-08T03:58:44.405Z,56.70
2023-05-08T03:59:44.388Z,56.25
2023-05-08T04:00:44.433Z,56.09
2023-05-08T04:01:44.534Z,56.52
2023-05-08T04:02:44.518Z,56.52
2023-05-08T04:03:44.561Z,57.20
2023-05-08T04:04:44.538Z,56.91
2023-05-08T04:05:44.532Z,57.53
2023-05-08T04:06:49.858Z,57.61
2023-05-08T04:07:45.564Z,57.04
2023-05-08T04:08:44.552Z,56.93
2023-05-08T04:09:44.525Z,56.58
2023-05-08T04:10:44.548Z,56.53
2023-05-08T04:11:44.622Z,56.94
2023-05-08T04:12:44.566Z,56.48
2023-05-08T04:13:44.509Z,56.49
2023-05-08T04:14:44.495Z,56.56
2023-05-08T04:15:44.516Z,56.65
2023-05-08T04:16:44.597Z,56.29
2023-05-08T04:17:44.516Z,56.50
2023-05-08T04:18:44.520Z,57.07
2023-05-08T04:19:44.589Z,57.14
2023-05-08T04:20:46.247Z,56.54
2023-05-08T04:21:44.725Z,56.23
2023-05-08T04:22:44.778Z,56.54
2023-05-08T04:23:44.813Z,56.31
2023-05-08T04:24:44.858Z,56.14
2023-05-08T04:25:44.898Z,56.06
2023-05-08T04:26:44.936Z,55.87
2023-05-08T04:27:44.989Z,55.80
2023-05-08T04:28:45.053Z,55.70
2023-05-08T04:29:45.103Z,55.80
2023-05-08T04:30:45.140Z,56.13
2023-05-08T04:31:45.210Z,55.87
2023-05-08T04:32:46.760Z,56.43
2023-05-08T04:33:45.225Z,56.51
2023-05-08T04:34:45.276Z,56.37
2023-05-08T04:35:45.297Z,56.35
2023-05-08T04:36:45.361Z,56.12
2023-05-08T04:37:45.418Z,55.99
2023-05-08T04:38:45.456Z,55.89
2023-05-08T04:39:45.523Z,55.86
2023-05-08T04:40:45.609Z,56.39
2023-05-08T04:41:45.689Z,56.14
2023-05-08T04:42:45.683Z,55.93
2023-05-08T04:43:45.711Z,55.83
2023-05-08T04:44:45.743Z,55.78
2023-05-08T04:45:45.793Z,55.67
2023-05-08T04:46:45.819Z,55.61
2023-05-08T04:47:45.929Z,55.44
2023-05-08T04:48:45.931Z,55.41
2023-05-08T04:49:45.979Z,55.37
2023-05-08T04:50:46.015Z,55.64
2023-05-08T04:51:46.053Z,55.41
2023-05-08T04:52:46.085Z,55.19
2023-05-08T04:53:46.105Z,55.21
2023-05-08T04:54:46.193Z,55.54
2023-05-08T04:55:46.190Z,55.35
2023-05-08T04:56:46.230Z,55.17
2023-05-08T04:57:46.307Z,55.18
2023-05-08T04:58:46.293Z,55.23
2023-05-08T04:59:46.331Z,55.10
2023-05-08T05:00:46.342Z,55.50
2023-05-08T05:01:46.417Z,56.21
2023-05-08T05:02:46.453Z,56.70
2023-05-08T05:03:46.506Z,57.09
2023-05-08T05:04:46.532Z,56.72
2023-05-08T05:05:46.601Z,56.54
2023-05-08T05:06:46.630Z,56.50
2023-05-08T05:07:46.674Z,56.80
2023-05-08T05:08:46.723Z,57.10
2023-05-08T05:09:46.786Z,57.20
2023-05-08T05:10:46.832Z,56.77
2023-05-08T05:11:46.876Z,57.45
2023-05-08T05:12:47.062Z,57.08
2023-05-08T05:13:46.934Z,56.77
2023-05-08T05:14:46.951Z,56.58
2023-05-08T05:15:47.025Z,57.01
2023-05-08T05:16:46.996Z,56.51
2023-05-08T05:17:47.052Z,57.58
2023-05-08T05:18:47.070Z,57.59
2023-05-08T05:19:47.130Z,57.10
2023-05-08T05:20:47.157Z,56.80
2023-05-08T05:21:47.342Z,56.98
2023-05-08T05:22:47.230Z,57.26
2023-05-08T05:23:47.273Z,57.15
2023-05-08T05:24:47.302Z,57.17
2023-05-08T05:25:47.324Z,56.93
2023-05-08T05:26:47.331Z,56.47
2023-05-08T05:27:47.311Z,56.74
2023-05-08T05:28:47.360Z,56.58
2023-05-08T05:29:47.391Z,56.89
2023-05-08T05:30:47.401Z,57.21
2023-05-08T05:31:47.527Z,57.27
2023-05-08T05:32:47.508Z,57.26
2023-05-08T05:33:47.540Z,57.65
2023-05-08T05:34:47.561Z,58.13
2023-05-08T05:35:47.613Z,58.60
2023-05-08T05:36:47.643Z,59.23
2023-05-08T05:37:47.710Z,59.38
2023-05-08T05:38:47.770Z,59.73
2023-05-08T05:39:47.783Z,59.56
2023-05-08T05:40:47.814Z,60.12
2023-05-08T05:41:47.815Z,59.86
2023-05-08T05:42:47.814Z,59.81
2023-05-08T05:43:47.856Z,59.99
2023-05-08T05:44:47.836Z,59.49
2023-05-08T05:45:47.841Z,59.41
2023-05-08T05:46:47.945Z,59.31
2023-05-08T05:47:47.959Z,59.25
2023-05-08T05:48:47.946Z,59.23
2023-05-08T05:49:47.948Z,59.29
2023-05-08T05:50:47.934Z,59.22
2023-05-08T05:51:47.958Z,59.38
2023-05-08T05:52:48.080Z,59.35
2023-05-08T05:53:47.972Z,59.25
2023-05-08T05:54:47.996Z,59.18
2023-05-08T05:55:48.022Z,59.13
2023-05-08T05:56:48.006Z,59.04
2023-05-08T05:57:48.021Z,59.31
2023-05-08T05:58:48.033Z,59.12
2023-05-08T05:59:48.037Z,59.48
2023-05-08T06:00:48.039Z,59.07
2023-05-08T06:01:48.045Z,59.35
2023-05-08T06:02:48.175Z,59.15
2023-05-08T06:03:48.058Z,58.77
2023-05-08T06:04:48.043Z,58.71
2023-05-08T06:05:48.050Z,58.82
2023-05-08T06:06:48.125Z,58.56
2023-05-08T06:07:48.151Z,58.40
2023-05-08T06:08:48.213Z,58.16
2023-05-08T06:09:48.288Z,58.45
2023-05-08T06:10:48.354Z,58.60
2023-05-08T06:11:48.383Z,58.54
2023-05-08T06:12:48.484Z,59.05
2023-05-08T06:13:50.393Z,58.73
2023-05-08T06:14:48.554Z,58.67
2023-05-08T06:15:48.616Z,58.57
2023-05-08T06:16:48.699Z,58.36
2023-05-08T06:17:48.786Z,58.22
2023-05-08T06:18:48.763Z,58.31
2023-05-08T06:19:48.835Z,58.00
2023-05-08T06:20:48.865Z,58.23
2023-05-08T06:21:48.927Z,58.07
2023-05-08T06:22:48.962Z,58.20
2023-05-08T06:23:48.969Z,58.46
2023-05-08T06:24:49.042Z,58.33
2023-05-08T06:25:49.082Z,58.10
2023-05-08T06:26:49.139Z,57.97
2023-05-08T06:27:49.230Z,57.63
2023-05-08T06:28:49.260Z,57.95
2023-05-08T06:29:49.763Z,58.08
2023-05-08T06:30:49.625Z,58.13
2023-05-08T06:31:49.431Z,57.69
2023-05-08T06:32:49.582Z,58.35
2023-05-08T06:33:49.598Z,58.16
2023-05-08T06:34:49.572Z,57.77
2023-05-08T06:35:49.661Z,57.61
2023-05-08T06:36:49.762Z,57.62
2023-05-08T06:37:49.749Z,57.62
2023-05-08T06:38:49.828Z,57.67
2023-05-08T06:39:57.261Z,57.70
2023-05-08T06:40:50.904Z,57.57
2023-05-08T06:41:49.881Z,57.23
2023-05-08T06:42:49.842Z,57.05
2023-05-08T06:43:49.842Z,57.13
2023-05-08T06:44:49.850Z,56.86
2023-05-08T06:45:49.839Z,56.97
2023-05-08T06:46:50.026Z,57.02
2023-05-08T06:47:49.950Z,56.86
2023-05-08T06:48:49.814Z,56.68
2023-05-08T06:49:49.793Z,56.59
2023-05-08T06:50:49.794Z,56.68
2023-05-08T06:51:49.815Z,56.72
2023-05-08T06:52:49.867Z,56.85
2023-05-08T06:53:49.873Z,56.61
2023-05-08T06:54:50.355Z,56.54
2023-05-08T06:55:49.937Z,56.71
2023-05-08T06:56:49.952Z,56.86
2023-05-08T06:57:49.973Z,56.81
2023-05-08T06:58:57.002Z,57.04
2023-05-08T06:59:51.047Z,56.57
2023-05-08T07:00:49.984Z,56.69
2023-05-08T07:01:50.066Z,56.51
2023-05-08T07:02:50.149Z,57.19
2023-05-08T07:03:49.980Z,57.06
2023-05-08T07:04:50.034Z,56.85
2023-05-08T07:05:49.967Z,56.65
2023-05-08T07:06:49.950Z,56.47
2023-05-08T07:07:50.297Z,56.55
2023-05-08T07:08:49.958Z,56.50
2023-05-08T07:09:49.966Z,56.63
2023-05-08T07:10:49.946Z,56.48
2023-05-08T07:11:49.934Z,56.48
2023-05-08T07:12:50.026Z,56.47
2023-05-08T07:13:49.941Z,56.28
2023-05-08T07:14:49.910Z,56.11
2023-05-08T07:15:49.927Z,56.29
2023-05-08T07:16:49.902Z,56.45
2023-05-08T07:17:49.926Z,56.63
2023-05-08T07:18:49.922Z,56.30
2023-05-08T07:19:49.985Z,56.39
2023-05-08T07:20:49.981Z,56.22
2023-05-08T07:21:49.986Z,55.91
2023-05-08T07:22:49.978Z,55.96
2023-05-08T07:23:49.982Z,56.21
2023-05-08T07:24:50.039Z,55.92
2023-05-08T07:25:50.040Z,55.68
2023-05-08T07:26:50.061Z,55.47
2023-05-08T07:27:50.056Z,55.48
2023-05-08T07:28:50.042Z,55.62
2023-05-08T07:29:50.103Z,55.99
2023-05-08T07:30:50.095Z,55.92
2023-05-08T07:31:50.131Z,56.01
2023-05-08T07:32:50.189Z,56.03
2023-05-08T07:33:50.143Z,56.04
2023-05-08T07:34:50.246Z,56.28
2023-05-08T07:35:50.196Z,56.34
2023-05-08T07:36:50.216Z,56.47
2023-05-08T07:37:50.246Z,57.48
2023-05-08T07:38:50.240Z,57.19
2023-05-08T07:39:50.253Z,57.08
2023-05-08T07:40:50.781Z,57.06
2023-05-08T07:41:50.339Z,56.83
2023-05-08T07:42:50.767Z,56.82
2023-05-08T07:43:50.326Z,57.12
2023-05-08T07:44:54.473Z,56.87
2023-05-08T07:45:50.346Z,56.74
2023-05-08T07:46:50.401Z,56.73
2023-05-08T07:47:51.163Z,56.50
2023-05-08T07:48:50.379Z,56.47
2023-05-08T07:49:50.322Z,56.39
2023-05-08T07:50:50.368Z,56.22
2023-05-08T07:51:50.303Z,56.58
2023-05-08T07:52:50.764Z,56.69
2023-05-08T07:53:50.290Z,56.79
2023-05-08T07:54:50.301Z,57.14
2023-05-08T07:55:50.266Z,57.06
2023-05-08T07:56:50.282Z,57.38
2023-05-08T07:57:50.302Z,57.55
2023-05-08T07:58:50.266Z,57.40
2023-05-08T07:59:50.250Z,57.53
2023-05-08T08:00:50.247Z,57.34
2023-05-08T08:01:50.263Z,57.26
2023-05-08T08:02:50.468Z,57.07
2023-05-08T08:03:50.390Z,57.37
2023-05-08T08:04:50.228Z,57.08
2023-05-08T08:05:50.365Z,56.65
2023-05-08T08:06:50.233Z,56.43
2023-05-08T08:07:50.288Z,56.48
2023-05-08T08:08:50.236Z,56.22
2023-05-08T08:09:50.193Z,56.11
2023-05-08T08:10:50.259Z,55.82
2023-05-08T08:11:50.479Z,55.42
2023-05-08T08:12:50.812Z,55.29
2023-05-08T08:13:50.361Z,55.34
2023-05-08T08:14:50.510Z,55.62
2023-05-08T08:15:50.484Z,55.21
2023-05-08T08:16:50.574Z,55.31
2023-05-08T08:17:50.937Z,55.07
2023-05-08T08:18:50.590Z,54.70
2023-05-08T08:19:50.645Z,54.56
2023-05-08T08:20:50.741Z,54.70
2023-05-08T08:21:50.829Z,54.77
2023-05-08T08:22:50.878Z,54.92
2023-05-08T08:23:50.872Z,54.87
2023-05-08T08:24:52.466Z,54.70
2023-05-08T08:25:51.325Z,54.65
2023-05-08T08:26:50.935Z,54.65
2023-05-08T08:27:50.888Z,54.33
2023-05-08T08:28:51.016Z,54.49
2023-05-08T08:29:52.523Z,54.84
2023-05-08T08:30:51.888Z,55.20
2023-05-08T08:31:50.893Z,55.02
2023-05-08T08:32:50.956Z,55.72
2023-05-08T08:33:50.875Z,55.90
2023-05-08T08:34:50.870Z,55.48
2023-05-08T08:35:50.873Z,54.99
2023-05-08T08:36:50.827Z,54.85
2023-05-08T08:37:51.309Z,54.31
2023-05-08T08:38:50.908Z,54.78
2023-05-08T08:39:50.825Z,54.81
2023-05-08T08:40:50.859Z,55.14
2023-05-08T08:41:50.859Z,55.27
2023-05-08T08:42:51.299Z,54.93
2023-05-08T08:43:50.940Z,54.69
2023-05-08T08:44:50.946Z,54.00
2023-05-08T08:45:51.014Z,54.20
2023-05-08T08:46:51.083Z,54.47
2023-05-08T08:47:51.124Z,54.45
2023-05-08T08:48:51.051Z,54.21
2023-05-08T08:49:51.060Z,54.45
2023-05-08T08:50:51.127Z,54.26
2023-05-08T08:51:51.122Z,53.75
2023-05-08T08:52:51.129Z,53.13
2023-05-08T08:53:51.107Z,53.13
2023-05-08T08:54:51.224Z,53.01
2023-05-08T08:55:51.112Z,53.38
2023-05-08T08:56:51.115Z,52.61
2023-05-08T08:57:51.111Z,52.44
2023-05-08T08:58:51.233Z,52.05
2023-05-08T08:59:51.159Z,52.07
2023-05-08T09:00:51.164Z,52.35
2023-05-08T09:01:51.330Z,51.96
2023-05-08T09:02:51.271Z,52.51
2023-05-08T09:03:51.246Z,52.96
2023-05-08T09:04:51.198Z,53.03
2023-05-08T09:05:51.329Z,52.70
2023-05-08T09:06:51.207Z,52.62
2023-05-08T09:07:51.352Z,52.73
2023-05-08T09:08:51.211Z,52.26
2023-05-08T09:09:51.260Z,52.05
2023-05-08T09:10:51.309Z,52.10
2023-05-08T09:11:51.270Z,52.73
2023-05-08T09:12:51.365Z,53.16
2023-05-08T09:13:51.283Z,53.83
2023-05-08T09:14:51.296Z,53.85
2023-05-08T09:15:51.403Z,53.81
2023-05-08T09:16:51.357Z,53.36
2023-05-08T09:17:51.396Z,53.64
2023-05-08T09:18:51.336Z,53.76
2023-05-08T09:19:51.347Z,53.91
2023-05-08T09:20:51.432Z,54.21
2023-05-08T09:21:51.343Z,53.73
2023-05-08T09:22:51.387Z,53.69
2023-05-08T09:23:51.383Z,53.17
2023-05-08T09:24:51.416Z,53.36
2023-05-08T09:25:51.402Z,53.31
2023-05-08T09:26:51.497Z,53.38
2023-05-08T09:27:51.818Z,53.29
2023-05-08T09:28:51.843Z,53.28
2023-05-08T09:29:51.445Z,53.72
2023-05-08T09:30:51.441Z,53.76
2023-05-08T09:31:51.580Z,54.24
2023-05-08T09:32:51.561Z,54.69
2023-05-08T09:33:51.821Z,54.21
2023-05-08T09:34:51.613Z,53.61
2023-05-08T09:35:51.703Z,53.65
2023-05-08T09:36:51.755Z,53.80
2023-05-08T09:37:51.805Z,54.71
2023-05-08T09:38:52.321Z,54.27
2023-05-08T09:39:51.982Z,54.34
2023-05-08T09:40:52.366Z,54.51
2023-05-08T09:41:52.033Z,54.45
2023-05-08T09:42:52.168Z,53.99
2023-05-08T09:43:52.176Z,53.92
2023-05-08T09:44:52.230Z,54.03
2023-05-08T09:45:52.307Z,53.29
2023-05-08T09:46:52.323Z,53.36
2023-05-08T09:47:52.413Z,52.49
2023-05-08T09:48:52.431Z,52.26
2023-05-08T09:49:52.465Z,52.69
2023-05-08T09:50:52.537Z,52.48
2023-05-08T09:51:52.711Z,53.20
2023-05-08T09:52:52.719Z,53.25
2023-05-08T09:53:52.740Z,53.84
2023-05-08T09:54:52.781Z,54.33
2023-05-08T09:55:52.824Z,54.66
2023-05-08T09:56:52.881Z,54.87
2023-05-08T09:57:52.941Z,54.71
2023-05-08T09:58:53.085Z,54.90
2023-05-08T09:59:53.073Z,54.75
2023-05-08T10:00:53.127Z,54.45
2023-05-08T10:01:53.132Z,54.16
2023-05-08T10:02:53.365Z,53.39
2023-05-08T10:03:53.362Z,53.34
2023-05-08T10:04:53.238Z,54.30
2023-05-08T10:05:53.323Z,54.00
2023-05-08T10:06:56.378Z,53.73
2023-05-08T10:07:53.848Z,53.87
2023-05-08T10:08:53.360Z,54.01
2023-05-08T10:09:53.353Z,54.23
2023-05-08T10:10:53.404Z,54.00
2023-05-08T10:11:53.328Z,53.92
2023-05-08T10:12:53.376Z,54.13
2023-05-08T10:13:53.452Z,54.47
2023-05-08T10:14:53.383Z,54.23
2023-05-08T10:15:53.311Z,54.12
2023-05-08T10:16:53.336Z,53.86
2023-05-08T10:17:53.355Z,53.80
2023-05-08T10:18:53.321Z,53.46
2023-05-08T10:19:53.280Z,53.73
2023-05-08T10:20:53.363Z,53.68
2023-05-08T10:21:53.340Z,53.67
2023-05-08T10:22:53.290Z,52.63
2023-05-08T10:23:53.287Z,52.01
2023-05-08T10:24:53.256Z,52.85
2023-05-08T10:25:55.021Z,53.55
2023-05-08T10:27:05.735Z,53.22
2023-05-08T10:27:54.253Z,52.15
2023-05-08T10:28:53.323Z,51.84
2023-05-08T10:29:53.210Z,51.98
2023-05-08T10:30:53.348Z,52.37
2023-05-08T10:31:53.208Z,51.68
2023-05-08T10:32:53.233Z,51.72
2023-05-08T10:33:53.204Z,52.56
2023-05-08T10:34:53.237Z,52.98
2023-05-08T10:35:53.211Z,52.73
2023-05-08T10:36:54.185Z,53.63
2023-05-08T10:37:53.237Z,52.74
2023-05-08T10:38:53.278Z,52.19
2023-05-08T10:39:53.344Z,52.37
2023-05-08T10:40:53.445Z,52.56
2023-05-08T10:41:53.465Z,51.72
2023-05-08T10:42:53.502Z,51.12
2023-05-08T10:43:53.514Z,50.86
2023-05-08T10:44:53.542Z,50.53
2023-05-08T10:45:53.657Z,49.66
2023-05-08T10:46:53.734Z,50.46
2023-05-08T10:47:53.755Z,50.70
2023-05-08T10:48:53.733Z,50.00
2023-05-08T10:49:53.719Z,49.76
2023-05-08T10:50:53.731Z,50.23
2023-05-08T10:51:53.753Z,50.68
2023-05-08T10:52:53.763Z,50.14
2023-05-08T10:53:53.799Z,50.22
2023-05-08T10:54:53.772Z,50.13
2023-05-08T10:55:53.972Z,49.47
2023-05-08T10:56:53.800Z,48.71
2023-05-08T10:57:53.786Z,48.12
2023-05-08T10:58:53.828Z,47.92
2023-05-08T10:59:53.802Z,48.04
2023-05-08T11:00:53.845Z,50.38
2023-05-08T11:01:53.867Z,51.37
2023-05-08T11:02:53.938Z,50.87
2023-05-08T11:03:53.929Z,49.96
2023-05-08T11:04:53.854Z,49.95
2023-05-08T11:05:53.922Z,50.43
2023-05-08T11:06:53.859Z,50.24
2023-05-08T11:07:53.890Z,49.49
2023-05-08T11:08:54.248Z,49.92
2023-05-08T11:09:54.039Z,49.39
2023-05-08T11:10:54.047Z,49.64
2023-05-08T11:11:54.119Z,49.29
2023-05-08T11:12:54.254Z,48.23
2023-05-08T11:13:54.230Z,48.33
2023-05-08T11:14:54.225Z,48.81
2023-05-08T11:15:54.335Z,49.16
2023-05-08T11:16:54.379Z,48.79
2023-05-08T11:17:54.518Z,48.59
2023-05-08T11:18:54.841Z,47.86
2023-05-08T11:19:54.546Z,47.36
2023-05-08T11:20:54.579Z,46.97
2023-05-08T11:21:54.856Z,46.88
2023-05-08T11:22:54.698Z,46.09
2023-05-08T11:23:54.745Z,48.76
2023-05-08T11:24:54.789Z,47.11
2023-05-08T11:25:54.836Z,49.22
2023-05-08T11:26:54.878Z,48.74
2023-05-08T11:27:54.897Z,49.53
2023-05-08T11:28:54.986Z,48.89
2023-05-08T11:29:54.960Z,48.16
2023-05-08T11:30:54.991Z,47.55
2023-05-08T11:31:55.035Z,48.56
2023-05-08T11:32:55.083Z,48.89
2023-05-08T11:33:55.064Z,47.76
2023-05-08T11:34:55.063Z,48.04
2023-05-08T11:35:55.048Z,47.70
2023-05-08T11:36:55.063Z,48.07
2023-05-08T11:37:55.073Z,47.95
2023-05-08T11:38:56.348Z,47.51
2023-05-08T11:39:55.076Z,47.44
2023-05-08T11:40:55.105Z,46.74
2023-05-08T11:41:55.102Z,47.09
2023-05-08T11:42:55.127Z,47.73
2023-05-08T11:43:55.146Z,47.04
2023-05-08T11:44:55.170Z,46.79
2023-05-08T11:45:55.180Z,47.35
2023-05-08T11:46:55.233Z,47.78
2023-05-08T11:47:55.201Z,47.92
2023-05-08T11:48:55.204Z,49.15
2023-05-08T11:49:55.275Z,47.77
2023-05-08T11:50:55.267Z,46.57
2023-05-08T11:51:55.266Z,47.64
2023-05-08T11:52:55.244Z,46.66
2023-05-08T11:53:55.268Z,46.89
2023-05-08T11:54:55.251Z,47.20
2023-05-08T11:55:55.257Z,46.69
2023-05-08T11:56:55.264Z,46.13
2023-05-08T11:57:55.275Z,46.10
2023-05-08T11:58:55.278Z,46.59
2023-05-08T11:59:55.262Z,46.01
2023-05-08T12:00:55.424Z,45.61
2023-05-08T12:02:55.341Z,46.04
2023-05-08T12:03:55.401Z,45.18
2023-05-08T12:04:55.317Z,44.60
2023-05-08T12:05:55.257Z,44.04
2023-05-08T12:06:55.248Z,43.63
2023-05-08T12:07:55.219Z,43.76
2023-05-08T12:08:55.232Z,43.77
2023-05-08T12:09:55.209Z,44.18
2023-05-08T12:10:55.216Z,44.26
2023-05-08T12:11:55.202Z,43.70
2023-05-08T12:12:55.233Z,43.71
2023-05-08T12:13:55.217Z,43.49
2023-05-08T12:14:55.174Z,44.04
2023-05-08T12:15:55.167Z,44.75
2023-05-08T12:16:55.208Z,44.67
2023-05-08T12:17:55.172Z,45.28
2023-05-08T12:18:55.160Z,44.80
2023-05-08T12:19:55.156Z,43.70
2023-05-08T12:20:55.158Z,44.09
2023-05-08T12:21:55.147Z,43.92
2023-05-08T12:22:55.139Z,44.86
2023-05-08T12:23:55.134Z,44.62
2023-05-08T12:24:55.129Z,43.71
2023-05-08T12:25:55.545Z,43.78
2023-05-08T12:26:55.097Z,43.58
2023-05-08T12:27:55.110Z,44.27
2023-05-08T12:28:55.104Z,44.13
2023-05-08T12:29:55.090Z,44.77
2023-05-08T12:30:55.101Z,45.12
2023-05-08T12:31:55.090Z,44.98
2023-05-08T12:32:55.119Z,45.56
2023-05-08T12:33:55.072Z,44.98
2023-05-08T12:34:55.053Z,44.50
2023-05-08T12:35:55.074Z,44.51
2023-05-08T12:36:55.037Z,44.22
2023-05-08T12:37:55.029Z,44.29
2023-05-08T12:38:55.113Z,43.80
2023-05-08T12:39:55.005Z,44.33
2023-05-08T12:40:55.020Z,44.86
2023-05-08T12:41:54.993Z,44.58
2023-05-08T12:42:54.990Z,44.97
2023-05-08T12:43:54.973Z,43.92
2023-05-08T12:44:54.974Z,43.84
2023-05-08T12:45:54.973Z,43.94
2023-05-08T12:46:55.048Z,44.67
2023-05-08T12:47:55.041Z,44.30
2023-05-08T12:48:54.955Z,43.85
2023-05-08T12:49:54.977Z,43.45
2023-05-08T12:50:54.921Z,43.42
2023-05-08T12:51:54.922Z,43.28
2023-05-08T12:52:54.924Z,44.00
2023-05-08T12:53:54.904Z,43.91